sensor_id;sensor_type;location;lat;lon;timestamp;pressure;altitude;pressure_sealevel;temperature;humidity
69247;BME280;56358;56.328;43.992;2024-02-28T00:01:55;102224.56;;;-4.96;50.10
69247;BME280;56358;56.328;43.992;2024-02-28T00:03:56;102220.94;;;-5.07;50.87
69247;BME280;56358;56.328;43.992;2024-02-28T00:05:57;102228.94;;;-4.96;50.00
69247;BME280;56358;56.328;43.992;2024-02-28T00:07:57;102198.28;;;-5.05;49.86
69247;BME280;56358;56.328;43.992;2024-02-28T00:09:58;102222.84;;;-4.95;49.42
69247;BME280;56358;56.328;43.992;2024-02-28T00:11:59;102226.31;;;-4.96;49.46
69247;BME280;56358;56.328;43.992;2024-02-28T00:13:59;102214.78;;;-5.09;49.77
69247;BME280;56358;56.328;43.992;2024-02-28T00:16:00;102220.06;;;-5.06;49.71
69247;BME280;56358;56.328;43.992;2024-02-28T00:18:01;102214.94;;;-4.98;49.70
69247;BME280;56358;56.328;43.992;2024-02-28T00:20:04;102222.78;;;-4.98;49.99
69247;BME280;56358;56.328;43.992;2024-02-28T00:22:05;102215.84;;;-4.98;50.13
69247;BME280;56358;56.328;43.992;2024-02-28T00:24:09;102219.31;;;-4.97;50.14
69247;BME280;56358;56.328;43.992;2024-02-28T00:26:12;102129.69;;;-5.47;50.00
69247;BME280;56358;56.328;43.992;2024-02-28T00:28:12;102186.00;;;-5.11;50.04
69247;BME280;56358;56.328;43.992;2024-02-28T00:30:13;102206.13;;;-5.05;50.00
69247;BME280;56358;56.328;43.992;2024-02-28T00:32:14;102212.31;;;-4.98;49.64
69247;BME280;56358;56.328;43.992;2024-02-28T00:34:14;102205.34;;;-5.01;49.59
69247;BME280;56358;56.328;43.992;2024-02-28T00:36:15;102215.81;;;-4.99;49.02
69247;BME280;56358;56.328;43.992;2024-02-28T00:38:17;102205.22;;;-5.09;49.15
69247;BME280;56358;56.328;43.992;2024-02-28T00:40:18;102221.09;;;-4.96;49.32
69247;BME280;56358;56.328;43.992;2024-02-28T00:42:19;102209.66;;;-5.01;49.21
69247;BME280;56358;56.328;43.992;2024-02-28T00:44:19;102227.97;;;-5.03;49.27
69247;BME280;56358;56.328;43.992;2024-02-28T00:46:20;102134.78;;;-5.55;49.74
69247;BME280;56358;56.328;43.992;2024-02-28T00:48:21;102232.28;;;-5.05;49.50
69247;BME280;56358;56.328;43.992;2024-02-28T00:50:22;102125.13;;;-5.60;49.72
69247;BME280;56358;56.328;43.992;2024-02-28T00:52:23;102126.88;;;-5.61;49.43
69247;BME280;56358;56.328;43.992;2024-02-28T00:54:25;102149.69;;;-5.50;49.56
69247;BME280;56358;56.328;43.992;2024-02-28T00:56:26;102224.38;;;-5.10;49.65
69247;BME280;56358;56.328;43.992;2024-02-28T00:58:27;102238.31;;;-5.11;49.73
69247;BME280;56358;56.328;43.992;2024-02-28T01:00:30;102240.88;;;-5.14;49.63
69247;BME280;56358;56.328;43.992;2024-02-28T01:02:32;102163.50;;;-5.58;49.43
69247;BME280;56358;56.328;43.992;2024-02-28T01:04:32;102209.22;;;-5.32;49.41
69247;BME280;56358;56.328;43.992;2024-02-28T01:06:33;102190.75;;;-5.43;49.85
69247;BME280;56358;56.328;43.992;2024-02-28T01:08:34;102237.28;;;-5.22;50.09
69247;BME280;56358;56.328;43.992;2024-02-28T01:10:34;102252.94;;;-5.24;49.97
69247;BME280;56358;56.328;43.992;2024-02-28T01:12:35;102244.19;;;-5.26;49.75
69247;BME280;56358;56.328;43.992;2024-02-28T01:14:36;102236.31;;;-5.27;49.68
69247;BME280;56358;56.328;43.992;2024-02-28T01:16:36;102173.78;;;-5.70;49.83
69247;BME280;56358;56.328;43.992;2024-02-28T01:18:38;102232.75;;;-5.32;49.78
69247;BME280;56358;56.328;43.992;2024-02-28T01:20:39;102252.72;;;-5.36;49.59
69247;BME280;56358;56.328;43.992;2024-02-28T01:22:39;102231.81;;;-5.36;49.88
69247;BME280;56358;56.328;43.992;2024-02-28T01:24:40;102259.72;;;-5.35;49.79
69247;BME280;56358;56.328;43.992;2024-02-28T01:26:41;102235.22;;;-5.40;49.32
69247;BME280;56358;56.328;43.992;2024-02-28T01:28:41;102239.56;;;-5.42;49.54
69247;BME280;56358;56.328;43.992;2024-02-28T01:30:43;102229.00;;;-5.48;49.70
69247;BME280;56358;56.328;43.992;2024-02-28T01:32:44;102234.25;;;-5.47;49.62
69247;BME280;56358;56.328;43.992;2024-02-28T01:34:45;102247.31;;;-5.47;49.29
69247;BME280;56358;56.328;43.992;2024-02-28T01:36:46;102195.66;;;-5.63;49.51
69247;BME280;56358;56.328;43.992;2024-02-28T01:38:47;102229.00;;;-5.47;49.26
69247;BME280;56358;56.328;43.992;2024-02-28T01:40:48;102229.78;;;-5.54;49.99
69247;BME280;56358;56.328;43.992;2024-02-28T01:42:48;102219.22;;;-5.60;49.50
69247;BME280;56358;56.328;43.992;2024-02-28T01:44:49;102214.94;;;-5.57;49.55
69247;BME280;56358;56.328;43.992;2024-02-28T01:46:50;102154.19;;;-5.98;49.61
69247;BME280;56358;56.328;43.992;2024-02-28T01:48:53;102219.28;;;-5.57;49.46
69247;BME280;56358;56.328;43.992;2024-02-28T01:50:55;102225.34;;;-5.58;49.43
69247;BME280;56358;56.328;43.992;2024-02-28T01:52:55;102205.09;;;-5.73;49.37
69247;BME280;56358;56.328;43.992;2024-02-28T01:54:56;102213.84;;;-5.68;49.60
69247;BME280;56358;56.328;43.992;2024-02-28T01:56:57;102204.19;;;-5.74;49.48
69247;BME280;56358;56.328;43.992;2024-02-28T01:58:58;102199.78;;;-5.76;49.84
69247;BME280;56358;56.328;43.992;2024-02-28T02:01:02;102214.66;;;-5.72;49.85
69247;BME280;56358;56.328;43.992;2024-02-28T02:03:03;102197.25;;;-5.73;49.83
69247;BME280;56358;56.328;43.992;2024-02-28T02:05:04;102178.78;;;-5.82;49.60
69247;BME280;56358;56.328;43.992;2024-02-28T02:07:06;102187.53;;;-5.80;49.40
69247;BME280;56358;56.328;43.992;2024-02-28T02:09:07;102197.25;;;-5.73;49.20
69247;BME280;56358;56.328;43.992;2024-02-28T02:11:08;102096.22;;;-6.28;49.00
69247;BME280;56358;56.328;43.992;2024-02-28T02:13:09;102199.06;;;-5.69;48.99
69247;BME280;56358;56.328;43.992;2024-02-28T02:15:10;102196.44;;;-5.69;49.33
69247;BME280;56358;56.328;43.992;2024-02-28T02:17:11;102201.66;;;-5.69;48.27
69247;BME280;56358;56.328;43.992;2024-02-28T02:19:11;102178.00;;;-5.77;48.77
69247;BME280;56358;56.328;43.992;2024-02-28T02:21:17;102151.72;;;-5.87;48.74
69247;BME280;56358;56.328;43.992;2024-02-28T02:23:19;102091.16;;;-6.18;48.49
69247;BME280;56358;56.328;43.992;2024-02-28T02:25:19;102054.13;;;-6.48;48.46
69247;BME280;56358;56.328;43.992;2024-02-28T02:27:20;102095.47;;;-6.20;48.88
69247;BME280;56358;56.328;43.992;2024-02-28T02:29:21;102194.72;;;-5.65;48.86
69247;BME280;56358;56.328;43.992;2024-02-28T02:31:22;102200.78;;;-5.68;48.67
69247;BME280;56358;56.328;43.992;2024-02-28T02:33:22;102198.09;;;-5.73;48.67
69247;BME280;56358;56.328;43.992;2024-02-28T02:35:23;102195.38;;;-5.79;49.33
69247;BME280;56358;56.328;43.992;2024-02-28T02:37:23;102199.75;;;-5.79;48.92
69247;BME280;56358;56.328;43.992;2024-02-28T02:39:25;102188.34;;;-5.83;48.65
69247;BME280;56358;56.328;43.992;2024-02-28T02:41:25;102204.03;;;-5.83;48.62
69247;BME280;56358;56.328;43.992;2024-02-28T02:43:26;102193.53;;;-5.86;48.60
69247;BME280;56358;56.328;43.992;2024-02-28T02:45:26;102192.69;;;-5.85;49.12
69247;BME280;56358;56.328;43.992;2024-02-28T02:47:27;102181.31;;;-5.87;48.69
69247;BME280;56358;56.328;43.992;2024-02-28T02:49:28;102186.53;;;-5.87;48.78
69247;BME280;56358;56.328;43.992;2024-02-28T02:51:28;102184.78;;;-5.88;48.58
69247;BME280;56358;56.328;43.992;2024-02-28T02:53:29;102145.16;;;-6.17;48.94
69247;BME280;56358;56.328;43.992;2024-02-28T02:55:30;102053.78;;;-6.66;48.45
69247;BME280;56358;56.328;43.992;2024-02-28T02:57:31;102172.56;;;-5.91;48.69
69247;BME280;56358;56.328;43.992;2024-02-28T02:59:32;102073.97;;;-6.56;48.88
69247;BME280;56358;56.328;43.992;2024-02-28T03:01:33;102148.78;;;-6.08;48.91
69247;BME280;56358;56.328;43.992;2024-02-28T03:03:34;102060.84;;;-6.59;48.92
69247;BME280;56358;56.328;43.992;2024-02-28T03:05:35;102192.50;;;-5.96;48.69
69247;BME280;56358;56.328;43.992;2024-02-28T03:07:36;102190.78;;;-5.94;49.32
69247;BME280;56358;56.328;43.992;2024-02-28T03:09:36;102180.31;;;-5.94;48.83
69247;BME280;56358;56.328;43.992;2024-02-28T03:11:37;102186.44;;;-5.93;48.72
69247;BME280;56358;56.328;43.992;2024-02-28T03:13:38;102169.00;;;-5.94;48.14
69247;BME280;56358;56.328;43.992;2024-02-28T03:15:39;102185.53;;;-5.94;48.24
69247;BME280;56358;56.328;43.992;2024-02-28T03:17:39;102169.84;;;-5.98;47.89
69247;BME280;56358;56.328;43.992;2024-02-28T03:19:40;102147.16;;;-6.01;48.51
69247;BME280;56358;56.328;43.992;2024-02-28T03:21:41;102150.56;;;-6.05;48.50
69247;BME280;56358;56.328;43.992;2024-02-28T03:23:42;102152.25;;;-6.07;48.56
69247;BME280;56358;56.328;43.992;2024-02-28T03:25:43;102146.31;;;-5.97;48.59
69247;BME280;56358;56.328;43.992;2024-02-28T03:27:43;102175.03;;;-6.00;48.30
69247;BME280;56358;56.328;43.992;2024-02-28T03:29:44;102155.88;;;-5.99;48.16
69247;BME280;56358;56.328;43.992;2024-02-28T03:31:44;102123.47;;;-6.12;48.05
69247;BME280;56358;56.328;43.992;2024-02-28T03:33:45;102164.59;;;-6.00;48.43
69247;BME280;56358;56.328;43.992;2024-02-28T03:35:47;102053.97;;;-6.55;48.30
69247;BME280;56358;56.328;43.992;2024-02-28T03:37:48;102157.59;;;-6.01;48.60
69247;BME280;56358;56.328;43.992;2024-02-28T03:39:48;102139.31;;;-6.02;48.41
69247;BME280;56358;56.328;43.992;2024-02-28T03:41:49;102148.06;;;-5.97;47.99
69247;BME280;56358;56.328;43.992;2024-02-28T03:43:50;102150.78;;;-5.91;47.25
69247;BME280;56358;56.328;43.992;2024-02-28T03:45:50;102152.56;;;-5.87;47.37
69247;BME280;56358;56.328;43.992;2024-02-28T03:47:51;102145.66;;;-5.85;47.53
69247;BME280;56358;56.328;43.992;2024-02-28T03:49:52;102030.53;;;-6.52;46.71
69247;BME280;56358;56.328;43.992;2024-02-28T03:51:52;102123.69;;;-5.98;46.60
69247;BME280;56358;56.328;43.992;2024-02-28T03:53:53;102144.84;;;-5.82;46.63
69247;BME280;56358;56.328;43.992;2024-02-28T03:55:54;102119.53;;;-5.85;46.46
69247;BME280;56358;56.328;43.992;2024-02-28T03:57:55;102127.53;;;-5.76;46.55
69247;BME280;56358;56.328;43.992;2024-02-28T03:59:55;102134.53;;;-5.73;46.50
69247;BME280;56358;56.328;43.992;2024-02-28T04:01:56;102077.44;;;-6.07;46.14
69247;BME280;56358;56.328;43.992;2024-02-28T04:03:57;102076.56;;;-6.06;46.51
69247;BME280;56358;56.328;43.992;2024-02-28T04:05:58;102140.66;;;-5.71;46.36
69247;BME280;56358;56.328;43.992;2024-02-28T04:07:59;102114.53;;;-5.71;46.88
69247;BME280;56358;56.328;43.992;2024-02-28T04:10:00;102078.56;;;-5.89;46.61
69247;BME280;56358;56.328;43.992;2024-02-28T04:12:00;102061.84;;;-6.00;47.12
69247;BME280;56358;56.328;43.992;2024-02-28T04:14:01;102119.75;;;-5.69;47.10
69247;BME280;56358;56.328;43.992;2024-02-28T04:16:02;102102.94;;;-5.87;47.18
69247;BME280;56358;56.328;43.992;2024-02-28T04:18:04;102102.97;;;-5.85;46.96
69247;BME280;56358;56.328;43.992;2024-02-28T04:20:12;102134.47;;;-5.76;47.01
69247;BME280;56358;56.328;43.992;2024-02-28T04:22:13;102109.09;;;-5.83;46.79
69247;BME280;56358;56.328;43.992;2024-02-28T04:24:14;102133.81;;;-5.63;47.02
69247;BME280;56358;56.328;43.992;2024-02-28T04:26:14;102147.75;;;-5.64;47.14
69247;BME280;56358;56.328;43.992;2024-02-28T04:28:15;102150.38;;;-5.62;47.34
69247;BME280;56358;56.328;43.992;2024-02-28T04:30:16;102158.16;;;-5.65;47.39
69247;BME280;56358;56.328;43.992;2024-02-28T04:32:17;102148.63;;;-5.63;47.47
69247;BME280;56358;56.328;43.992;2024-02-28T04:34:17;102120.38;;;-5.86;47.78
69247;BME280;56358;56.328;43.992;2024-02-28T04:36:18;102152.91;;;-5.67;47.78
69247;BME280;56358;56.328;43.992;2024-02-28T04:38:19;102150.28;;;-5.67;47.97
69247;BME280;56358;56.328;43.992;2024-02-28T04:40:20;102066.75;;;-6.20;47.91
69247;BME280;56358;56.328;43.992;2024-02-28T04:42:21;102158.13;;;-5.67;47.48
69247;BME280;56358;56.328;43.992;2024-02-28T04:44:21;102172.03;;;-5.68;47.50
69247;BME280;56358;56.328;43.992;2024-02-28T04:46:22;102166.78;;;-5.71;47.86
69247;BME280;56358;56.328;43.992;2024-02-28T04:48:23;102157.03;;;-5.81;48.16
69247;BME280;56358;56.328;43.992;2024-02-28T04:50:23;102151.66;;;-5.91;47.92
69247;BME280;56358;56.328;43.992;2024-02-28T04:52:24;102171.03;;;-5.78;48.12
69247;BME280;56358;56.328;43.992;2024-02-28T04:54:28;102126.28;;;-5.99;48.05
69247;BME280;56358;56.328;43.992;2024-02-28T04:56:28;102148.16;;;-5.91;48.23
69247;BME280;56358;56.328;43.992;2024-02-28T04:58:29;102162.97;;;-5.90;48.53
69247;BME280;56358;56.328;43.992;2024-02-28T05:00:30;102156.00;;;-5.90;49.23
69247;BME280;56358;56.328;43.992;2024-02-28T05:02:31;102147.28;;;-5.92;48.42
69247;BME280;56358;56.328;43.992;2024-02-28T05:04:31;102137.69;;;-5.93;48.76
69247;BME280;56358;56.328;43.992;2024-02-28T05:06:32;102051.50;;;-6.48;48.54
69247;BME280;56358;56.328;43.992;2024-02-28T05:08:33;102141.13;;;-5.98;48.67
69247;BME280;56358;56.328;43.992;2024-02-28T05:10:36;102109.66;;;-6.04;49.12
69247;BME280;56358;56.328;43.992;2024-02-28T05:12:37;102035.00;;;-6.47;49.11
69247;BME280;56358;56.328;43.992;2024-02-28T05:14:38;102113.19;;;-6.02;49.11
69247;BME280;56358;56.328;43.992;2024-02-28T05:16:39;102121.16;;;-5.93;49.52
69247;BME280;56358;56.328;43.992;2024-02-28T05:18:40;101942.94;;;-6.90;49.01
69247;BME280;56358;56.328;43.992;2024-02-28T05:20:41;102107.25;;;-5.91;49.37
69247;BME280;56358;56.328;43.992;2024-02-28T05:22:41;102116.03;;;-5.85;49.25
69247;BME280;56358;56.328;43.992;2024-02-28T05:24:45;102096.81;;;-5.91;49.29
69247;BME280;56358;56.328;43.992;2024-02-28T05:26:46;102114.34;;;-5.83;49.35
69247;BME280;56358;56.328;43.992;2024-02-28T05:28:47;102100.28;;;-5.92;49.29
69247;BME280;56358;56.328;43.992;2024-02-28T05:30:47;102099.47;;;-5.87;49.17
69247;BME280;56358;56.328;43.992;2024-02-28T05:32:48;102101.31;;;-5.80;49.57
69247;BME280;56358;56.328;43.992;2024-02-28T05:34:49;102100.41;;;-5.84;49.66
69247;BME280;56358;56.328;43.992;2024-02-28T05:36:50;102093.41;;;-5.85;49.71
69247;BME280;56358;56.328;43.992;2024-02-28T05:38:52;102091.78;;;-5.77;49.44
69247;BME280;56358;56.328;43.992;2024-02-28T05:40:53;102073.31;;;-5.91;49.89
69247;BME280;56358;56.328;43.992;2024-02-28T05:42:55;102117.00;;;-5.79;49.69
69247;BME280;56358;56.328;43.992;2024-02-28T05:44:56;102096.25;;;-5.69;49.73
69247;BME280;56358;56.328;43.992;2024-02-28T05:46:56;102108.50;;;-5.65;49.84
69247;BME280;56358;56.328;43.992;2024-02-28T05:48:57;102096.22;;;-5.71;50.13
69247;BME280;56358;56.328;43.992;2024-02-28T05:51:00;102098.00;;;-5.68;49.85
69247;BME280;56358;56.328;43.992;2024-02-28T05:53:01;102099.03;;;-5.59;50.39
69247;BME280;56358;56.328;43.992;2024-02-28T05:55:01;102093.78;;;-5.59;49.78
69247;BME280;56358;56.328;43.992;2024-02-28T05:57:04;102120.84;;;-5.57;49.83
69247;BME280;56358;56.328;43.992;2024-02-28T05:59:05;102078.78;;;-5.74;49.83
69247;BME280;56358;56.328;43.992;2024-02-28T06:01:05;102073.56;;;-5.72;49.99
69247;BME280;56358;56.328;43.992;2024-02-28T06:03:07;102115.63;;;-5.57;50.05
69247;BME280;56358;56.328;43.992;2024-02-28T06:05:08;102120.03;;;-5.52;49.69
69247;BME280;56358;56.328;43.992;2024-02-28T06:07:09;102117.53;;;-5.46;49.50
69247;BME280;56358;56.328;43.992;2024-02-28T06:09:10;102120.97;;;-5.49;49.49
69247;BME280;56358;56.328;43.992;2024-02-28T06:11:11;102113.84;;;-5.59;49.56
69247;BME280;56358;56.328;43.992;2024-02-28T06:13:11;102108.63;;;-5.58;49.90
69247;BME280;56358;56.328;43.992;2024-02-28T06:15:12;102112.19;;;-5.52;49.57
69247;BME280;56358;56.328;43.992;2024-02-28T06:17:13;102106.13;;;-5.50;50.03
69247;BME280;56358;56.328;43.992;2024-02-28T06:19:14;102118.56;;;-5.33;50.21
69247;BME280;56358;56.328;43.992;2024-02-28T06:21:14;102119.47;;;-5.31;49.54
69247;BME280;56358;56.328;43.992;2024-02-28T06:23:15;102115.19;;;-5.28;49.44
69247;BME280;56358;56.328;43.992;2024-02-28T06:25:17;102124.72;;;-5.28;49.69
69247;BME280;56358;56.328;43.992;2024-02-28T06:27:23;102111.66;;;-5.28;49.44
69247;BME280;56358;56.328;43.992;2024-02-28T06:29:23;102115.13;;;-5.29;49.72
69247;BME280;56358;56.328;43.992;2024-02-28T06:31:24;102115.09;;;-5.32;49.43
69247;BME280;56358;56.328;43.992;2024-02-28T06:33:25;102106.38;;;-5.33;49.36
69247;BME280;56358;56.328;43.992;2024-02-28T06:35:26;102094.19;;;-5.32;49.59
69247;BME280;56358;56.328;43.992;2024-02-28T06:37:27;102075.59;;;-5.52;49.47
69247;BME280;56358;56.328;43.992;2024-02-28T06:39:28;102123.94;;;-5.23;50.08
69247;BME280;56358;56.328;43.992;2024-02-28T06:41:29;102042.41;;;-5.60;49.79
69247;BME280;56358;56.328;43.992;2024-02-28T06:43:32;102109.28;;;-5.11;49.49
69247;BME280;56358;56.328;43.992;2024-02-28T06:45:33;102112.88;;;-5.03;49.74
69247;BME280;56358;56.328;43.992;2024-02-28T06:47:34;102082.19;;;-5.18;49.58
69247;BME280;56358;56.328;43.992;2024-02-28T06:49:36;102111.25;;;-4.93;49.40
69247;BME280;56358;56.328;43.992;2024-02-28T06:51:37;102114.78;;;-4.91;49.49
69247;BME280;56358;56.328;43.992;2024-02-28T06:53:38;102072.78;;;-5.02;49.27
69247;BME280;56358;56.328;43.992;2024-02-28T06:55:38;102103.56;;;-4.79;49.45
69247;BME280;56358;56.328;43.992;2024-02-28T06:57:42;102100.19;;;-4.69;49.60
69247;BME280;56358;56.328;43.992;2024-02-28T06:59:43;102104.66;;;-4.62;49.21
69247;BME280;56358;56.328;43.992;2024-02-28T07:01:44;102098.59;;;-4.55;49.22
69247;BME280;56358;56.328;43.992;2024-02-28T07:03:45;102086.34;;;-4.60;48.54
69247;BME280;56358;56.328;43.992;2024-02-28T07:05:45;102098.72;;;-4.44;48.92
69247;BME280;56358;56.328;43.992;2024-02-28T07:07:46;101984.72;;;-5.01;49.15
69247;BME280;56358;56.328;43.992;2024-02-28T07:09:47;102096.19;;;-4.33;49.46
69247;BME280;56358;56.328;43.992;2024-02-28T07:11:47;102074.47;;;-4.26;49.11
69247;BME280;56358;56.328;43.992;2024-02-28T07:13:48;102070.00;;;-4.36;48.89
69247;BME280;56358;56.328;43.992;2024-02-28T07:15:49;102088.53;;;-4.13;49.19
69247;BME280;56358;56.328;43.992;2024-02-28T07:17:49;102069.22;;;-4.24;49.43
69247;BME280;56358;56.328;43.992;2024-02-28T07:19:50;102086.81;;;-4.12;48.94
69247;BME280;56358;56.328;43.992;2024-02-28T07:21:51;102030.53;;;-4.56;48.34
69247;BME280;56358;56.328;43.992;2024-02-28T07:23:51;102080.66;;;-4.14;48.43
69247;BME280;56358;56.328;43.992;2024-02-28T07:25:52;102087.66;;;-4.12;48.38
69247;BME280;56358;56.328;43.992;2024-02-28T07:27:53;102078.94;;;-4.12;48.54
69247;BME280;56358;56.328;43.992;2024-02-28T07:29:54;102004.47;;;-4.42;48.65
69247;BME280;56358;56.328;43.992;2024-02-28T07:31:54;102050.13;;;-4.14;48.37
69247;BME280;56358;56.328;43.992;2024-02-28T07:33:55;102003.69;;;-4.33;48.54
69247;BME280;56358;56.328;43.992;2024-02-28T07:35:56;102079.13;;;-3.91;48.52
69247;BME280;56358;56.328;43.992;2024-02-28T07:38:01;102060.78;;;-3.86;48.66
69247;BME280;56358;56.328;43.992;2024-02-28T07:40:02;102066.03;;;-3.89;47.95
69247;BME280;56358;56.328;43.992;2024-02-28T07:42:04;102056.47;;;-3.78;48.67
69247;BME280;56358;56.328;43.992;2024-02-28T07:44:05;102069.63;;;-3.72;48.67
69247;BME280;56358;56.328;43.992;2024-02-28T07:46:08;102055.66;;;-3.74;47.97
69247;BME280;56358;56.328;43.992;2024-02-28T07:48:09;102053.91;;;-3.68;48.44
69247;BME280;56358;56.328;43.992;2024-02-28T07:50:10;102046.09;;;-3.64;47.88
69247;BME280;56358;56.328;43.992;2024-02-28T07:52:11;102021.59;;;-3.74;48.07
69247;BME280;56358;56.328;43.992;2024-02-28T07:54:11;102033.00;;;-3.58;48.72
69247;BME280;56358;56.328;43.992;2024-02-28T07:56:18;102038.34;;;-3.44;48.76
69247;BME280;56358;56.328;43.992;2024-02-28T07:58:19;102047.13;;;-3.37;48.22
69247;BME280;56358;56.328;43.992;2024-02-28T08:00:20;102029.63;;;-3.40;48.05
69247;BME280;56358;56.328;43.992;2024-02-28T08:02:21;101962.13;;;-3.79;48.15
69247;BME280;56358;56.328;43.992;2024-02-28T08:04:22;102018.22;;;-3.42;48.20
69247;BME280;56358;56.328;43.992;2024-02-28T08:06:23;102040.22;;;-3.16;48.30
69247;BME280;56358;56.328;43.992;2024-02-28T08:08:24;102048.97;;;-3.14;47.77
69247;BME280;56358;56.328;43.992;2024-02-28T08:10:25;102036.75;;;-3.05;47.71
69247;BME280;56358;56.328;43.992;2024-02-28T08:12:25;102043.78;;;-3.04;47.51
69247;BME280;56358;56.328;43.992;2024-02-28T08:14:27;102048.16;;;-2.99;47.55
69247;BME280;56358;56.328;43.992;2024-02-28T08:16:28;101951.78;;;-3.50;47.27
69247;BME280;56358;56.328;43.992;2024-02-28T08:18:28;102024.53;;;-3.01;48.16
69247;BME280;56358;56.328;43.992;2024-02-28T08:20:29;102004.38;;;-3.10;47.67
69247;BME280;56358;56.328;43.992;2024-02-28T08:22:30;102043.81;;;-2.88;48.29
69247;BME280;56358;56.328;43.992;2024-02-28T08:24:31;102030.72;;;-2.83;47.88
69247;BME280;56358;56.328;43.992;2024-02-28T08:26:31;102026.34;;;-2.78;48.10
69247;BME280;56358;56.328;43.992;2024-02-28T08:28:32;102019.34;;;-2.75;47.60
69247;BME280;56358;56.328;43.992;2024-02-28T08:30:33;102031.63;;;-2.66;47.60
69247;BME280;56358;56.328;43.992;2024-02-28T08:32:35;102028.13;;;-2.60;48.11
69247;BME280;56358;56.328;43.992;2024-02-28T08:34:35;102038.63;;;-2.59;47.39
69247;BME280;56358;56.328;43.992;2024-02-28T08:36:36;101969.44;;;-2.86;47.22
69247;BME280;56358;56.328;43.992;2024-02-28T08:38:37;102014.13;;;-2.50;47.45
69247;BME280;56358;56.328;43.992;2024-02-28T08:40:39;102028.16;;;-2.29;47.10
69247;BME280;56358;56.328;43.992;2024-02-28T08:42:40;102021.16;;;-2.18;47.68
69247;BME280;56358;56.328;43.992;2024-02-28T08:44:42;102015.88;;;-2.06;47.52
69247;BME280;56358;56.328;43.992;2024-02-28T08:46:42;101878.47;;;-2.76;46.00
69247;BME280;56358;56.328;43.992;2024-02-28T08:48:43;101944.94;;;-2.24;46.08
69247;BME280;56358;56.328;43.992;2024-02-28T08:50:44;101986.97;;;-1.96;45.87
69247;BME280;56358;56.328;43.992;2024-02-28T08:52:45;102013.19;;;-1.62;45.34
69247;BME280;56358;56.328;43.992;2024-02-28T08:54:46;101936.16;;;-2.08;45.72
69247;BME280;56358;56.328;43.992;2024-02-28T08:56:47;102027.16;;;-1.46;45.42
69247;BME280;56358;56.328;43.992;2024-02-28T08:58:48;102028.88;;;-1.36;44.92
69247;BME280;56358;56.328;43.992;2024-02-28T09:00:48;102007.75;;;-1.16;45.13
69247;BME280;56358;56.328;43.992;2024-02-28T09:02:50;102023.47;;;-1.02;44.94
69247;BME280;56358;56.328;43.992;2024-02-28T09:04:51;102019.00;;;-0.88;44.59
69247;BME280;56358;56.328;43.992;2024-02-28T09:06:53;102012.84;;;-0.79;44.32
69247;BME280;56358;56.328;43.992;2024-02-28T09:08:54;101979.44;;;-0.77;44.44
69247;BME280;56358;56.328;43.992;2024-02-28T09:10:54;101986.16;;;-0.36;43.84
69247;BME280;56358;56.328;43.992;2024-02-28T09:12:55;101906.44;;;-0.59;43.01
69247;BME280;56358;56.328;43.992;2024-02-28T09:14:56;101998.78;;;0.25;43.08
69247;BME280;56358;56.328;43.992;2024-02-28T09:16:58;101974.81;;;0.46;41.72
69247;BME280;56358;56.328;43.992;2024-02-28T09:19:04;101900.91;;;0.46;41.38
69247;BME280;56358;56.328;43.992;2024-02-28T09:21:07;101968.00;;;0.97;41.52
69247;BME280;56358;56.328;43.992;2024-02-28T09:23:08;101976.63;;;1.08;41.14
69247;BME280;56358;56.328;43.992;2024-02-28T09:25:09;101967.22;;;0.90;40.34
69247;BME280;56358;56.328;43.992;2024-02-28T09:27:10;101975.50;;;0.62;41.41
69247;BME280;56358;56.328;43.992;2024-02-28T09:29:10;101974.41;;;0.77;42.13
69247;BME280;56358;56.328;43.992;2024-02-28T09:31:11;101977.44;;;1.13;41.65
69247;BME280;56358;56.328;43.992;2024-02-28T09:33:12;101968.13;;;1.47;40.21
69247;BME280;56358;56.328;43.992;2024-02-28T09:35:13;101966.44;;;1.96;39.79
69247;BME280;56358;56.328;43.992;2024-02-28T09:37:14;101961.91;;;2.48;39.40
69247;BME280;56358;56.328;43.992;2024-02-28T09:39:15;101968.19;;;2.84;38.17
69247;BME280;56358;56.328;43.992;2024-02-28T09:41:15;101965.09;;;3.05;37.91
69247;BME280;56358;56.328;43.992;2024-02-28T09:43:31;101946.19;;;3.20;36.78
69247;BME280;56358;56.328;43.992;2024-02-28T09:45:33;101969.06;;;3.26;36.57
69247;BME280;56358;56.328;43.992;2024-02-28T09:47:35;101961.78;;;3.34;37.40
69247;BME280;56358;56.328;43.992;2024-02-28T09:49:36;101941.69;;;3.24;36.82
69247;BME280;56358;56.328;43.992;2024-02-28T09:51:39;101957.19;;;3.41;36.61
69247;BME280;56358;56.328;43.992;2024-02-28T09:53:40;101929.63;;;3.10;36.59
69247;BME280;56358;56.328;43.992;2024-02-28T09:55:41;101960.81;;;2.99;36.39
69247;BME280;56358;56.328;43.992;2024-02-28T09:57:43;101944.41;;;2.83;36.97
69247;BME280;56358;56.328;43.992;2024-02-28T09:59:47;101957.50;;;2.89;36.85
69247;BME280;56358;56.328;43.992;2024-02-28T10:01:55;101879.56;;;2.60;37.04
69247;BME280;56358;56.328;43.992;2024-02-28T10:03:56;101945.41;;;3.16;37.26
69247;BME280;56358;56.328;43.992;2024-02-28T10:05:59;101947.75;;;2.91;37.19
69247;BME280;56358;56.328;43.992;2024-02-28T10:08:00;101951.38;;;2.87;37.61
69247;BME280;56358;56.328;43.992;2024-02-28T10:10:00;101940.44;;;2.62;37.82
69247;BME280;56358;56.328;43.992;2024-02-28T10:12:02;101941.66;;;2.44;38.62
69247;BME280;56358;56.328;43.992;2024-02-28T10:14:03;101952.72;;;2.21;38.64
69247;BME280;56358;56.328;43.992;2024-02-28T10:16:06;101915.28;;;1.95;39.01
69247;BME280;56358;56.328;43.992;2024-02-28T10:18:07;101944.03;;;2.14;39.38
69247;BME280;56358;56.328;43.992;2024-02-28T10:20:09;101942.25;;;2.16;39.27
69247;BME280;56358;56.328;43.992;2024-02-28T10:22:09;101939.59;;;2.16;38.84
69247;BME280;56358;56.328;43.992;2024-02-28T10:24:11;101911.75;;;1.96;39.41
69247;BME280;56358;56.328;43.992;2024-02-28T10:26:13;101936.63;;;1.84;39.16